createdAt,value
2022-09-30T00:01:52.031Z,96.09
2022-09-30T00:04:25.195Z,95.98
2022-09-30T00:06:54.424Z,95.85
2022-09-30T00:09:23.086Z,95.93
2022-09-30T00:11:51.901Z,95.82
2022-09-30T00:14:22.782Z,95.59
2022-09-30T00:16:51.303Z,95.77
2022-09-30T00:19:19.285Z,96.17
2022-09-30T00:21:46.959Z,96.28
2022-09-30T00:24:14.755Z,96.36
2022-09-30T00:26:42.411Z,96.46
2022-09-30T00:29:11.520Z,96.75
2022-09-30T00:31:39.598Z,96.00
2022-09-30T00:34:11.444Z,96.58
2022-09-30T00:36:53.341Z,96.81
2022-09-30T00:39:24.124Z,96.78
2022-09-30T00:41:54.790Z,96.76
2022-09-30T00:44:58.145Z,96.85
2022-09-30T00:47:31.582Z,95.29
2022-09-30T00:50:06.058Z,94.64
2022-09-30T00:52:35.200Z,94.67
2022-09-30T00:55:09.356Z,94.87
2022-09-30T00:57:38.131Z,95.93
2022-09-30T01:00:06.589Z,96.32
2022-09-30T01:02:35.126Z,96.19
2022-09-30T01:05:03.793Z,96.08
2022-09-30T01:07:31.478Z,96.17
2022-09-30T01:09:59.621Z,96.31
2022-09-30T01:12:27.851Z,96.13
2022-09-30T01:14:58.926Z,95.95
2022-09-30T01:17:48.190Z,96.11
2022-09-30T01:20:22.812Z,95.80
2022-09-30T01:23:20.351Z,95.59
2022-09-30T01:26:18.753Z,95.37
2022-09-30T01:29:13.015Z,95.65
2022-09-30T01:31:46.520Z,95.13
2022-09-30T01:34:23.115Z,95.69
2022-09-30T01:37:00.510Z,95.61
2022-09-30T01:39:39.207Z,95.52
2022-09-30T01:42:37.666Z,94.99
2022-09-30T01:45:08.901Z,94.86
2022-09-30T01:48:15.394Z,95.15
2022-09-30T01:50:55.322Z,95.30
2022-09-30T01:53:25.955Z,95.56
2022-09-30T01:56:01.819Z,95.70
2022-09-30T01:58:51.488Z,95.49
2022-09-30T02:01:35.396Z,95.80
2022-09-30T02:04:09.871Z,95.50
2022-09-30T02:06:42.884Z,95.56
2022-09-30T02:09:13.410Z,95.17
2022-09-30T02:11:43.369Z,95.39
2022-09-30T02:14:20.904Z,95.39
2022-09-30T02:17:00.554Z,95.64
2022-09-30T02:19:38.169Z,95.69
2022-09-30T02:22:14.431Z,95.07
2022-09-30T02:24:45.048Z,95.21
2022-09-30T02:27:31.636Z,94.29
2022-09-30T02:30:02.769Z,95.04
2022-09-30T02:32:40.569Z,95.02
2022-09-30T02:35:20.077Z,95.00
2022-09-30T02:37:53.866Z,95.53
2022-09-30T02:40:38.216Z,95.42
2022-09-30T02:43:06.628Z,95.08
2022-09-30T02:45:51.140Z,95.44
2022-09-30T02:48:39.627Z,95.38
2022-09-30T02:51:23.470Z,95.74
2022-09-30T02:54:33.340Z,95.28
2022-09-30T02:57:06.087Z,95.05
2022-09-30T02:59:34.121Z,94.94
2022-09-30T03:02:02.149Z,95.29
2022-09-30T03:04:34.438Z,95.57
2022-09-30T03:07:02.812Z,95.88
2022-09-30T03:09:30.635Z,96.13
2022-09-30T03:12:18.340Z,96.02
2022-09-30T03:15:00.687Z,96.41
2022-09-30T03:17:28.273Z,95.67
2022-09-30T03:20:35.801Z,95.67
2022-09-30T03:23:37.370Z,95.51
2022-09-30T03:26:31.933Z,95.64
2022-09-30T03:29:37.440Z,95.66
2022-09-30T03:32:17.019Z,95.79
2022-09-30T03:34:47.480Z,95.92
2022-09-30T03:37:26.043Z,96.40
2022-09-30T03:40:00.433Z,96.34
2022-09-30T03:42:34.083Z,97.00
2022-09-30T03:45:47.725Z,96.77
2022-09-30T03:48:17.152Z,96.47
2022-09-30T03:50:46.189Z,96.67
2022-09-30T03:53:14.437Z,96.69
2022-09-30T03:55:55.395Z,96.39
2022-09-30T03:58:24.805Z,96.67
2022-09-30T04:00:54.758Z,96.47
2022-09-30T04:03:24.452Z,96.10
2022-09-30T04:05:52.118Z,96.53
2022-09-30T04:08:19.866Z,96.37
2022-09-30T04:10:47.560Z,95.99
2022-09-30T04:13:15.299Z,96.09
2022-09-30T04:15:43.365Z,95.68
2022-09-30T04:18:11.044Z,96.13
2022-09-30T04:20:39.543Z,95.97
2022-09-30T04:23:07.158Z,96.31
2022-09-30T04:25:34.809Z,96.11
2022-09-30T04:28:03.037Z,95.58
2022-09-30T04:30:33.604Z,95.64
2022-09-30T04:33:01.642Z,95.36
2022-09-30T04:35:31.146Z,95.21
2022-09-30T04:37:58.829Z,95.11
2022-09-30T04:46:09.966Z,95.01
2022-09-30T04:48:37.591Z,94.79
2022-09-30T04:51:05.287Z,94.88
2022-09-30T04:53:33.034Z,94.16
2022-09-30T04:56:02.339Z,94.36
2022-09-30T04:58:36.051Z,94.17
2022-09-30T05:01:15.951Z,94.48
2022-09-30T05:03:44.517Z,94.52
2022-09-30T05:06:12.782Z,94.61
2022-09-30T05:08:44.628Z,94.51
2022-09-30T05:11:18.559Z,94.81
2022-09-30T05:13:46.847Z,94.43
2022-09-30T05:16:16.039Z,94.11
2022-09-30T05:18:46.782Z,94.49
2022-09-30T05:21:17.479Z,94.53
2022-09-30T05:23:45.391Z,94.60
2022-09-30T05:26:13.542Z,94.54
2022-09-30T05:28:42.474Z,94.23
2022-09-30T05:31:10.430Z,94.16
2022-09-30T05:33:38.230Z,94.27
2022-09-30T05:36:08.701Z,93.72
2022-09-30T05:38:36.656Z,94.03
2022-09-30T05:41:09.851Z,93.89
2022-09-30T05:43:40.157Z,94.52
2022-09-30T05:49:07.005Z,94.00
2022-09-30T05:51:34.628Z,94.22
2022-09-30T05:54:02.255Z,93.67
2022-09-30T05:56:29.885Z,92.34
2022-09-30T05:58:57.567Z,93.56
2022-09-30T06:01:25.256Z,93.63
2022-09-30T06:03:53.153Z,93.67
2022-09-30T06:06:21.285Z,93.40
2022-09-30T06:08:49.108Z,92.60
2022-09-30T06:11:19.657Z,92.87
2022-09-30T06:13:48.836Z,93.41
2022-09-30T06:16:19.109Z,92.69
2022-09-30T06:18:46.761Z,93.54
2022-09-30T06:21:16.845Z,92.86
2022-09-30T06:23:44.922Z,93.25
2022-09-30T06:26:15.393Z,93.31
2022-09-30T06:28:43.843Z,93.61
2022-09-30T06:31:12.378Z,92.30
2022-09-30T06:33:40.070Z,92.49
2022-09-30T06:36:08.248Z,92.35
2022-09-30T06:38:40.438Z,92.74
2022-09-30T06:41:08.998Z,92.34
2022-09-30T06:43:50.949Z,92.51
2022-09-30T06:46:30.722Z,92.38
2022-09-30T06:49:13.390Z,92.03
2022-09-30T06:51:41.776Z,92.00
2022-09-30T06:54:10.237Z,92.17
2022-09-30T06:56:38.110Z,92.61
2022-09-30T06:59:05.835Z,92.37
2022-09-30T07:01:33.496Z,92.79
2022-09-30T07:04:01.930Z,92.17
2022-09-30T07:06:29.584Z,92.35
2022-09-30T07:08:57.897Z,92.21
2022-09-30T07:11:25.936Z,92.27
2022-09-30T07:13:53.595Z,91.65
2022-09-30T07:16:22.356Z,91.99
2022-09-30T07:18:50.034Z,91.46
2022-09-30T07:21:18.010Z,91.55
2022-09-30T07:23:49.845Z,91.90
2022-09-30T07:26:20.589Z,91.61
2022-09-30T07:28:48.759Z,91.80
2022-09-30T07:31:38.017Z,91.96
2022-09-30T07:34:08.206Z,91.99
2022-09-30T07:36:38.847Z,91.84
2022-09-30T07:39:09.113Z,91.80
2022-09-30T07:41:39.904Z,91.51
2022-09-30T07:44:11.013Z,91.43
2022-09-30T07:46:41.404Z,91.51
2022-09-30T07:49:15.537Z,91.45
2022-09-30T07:51:46.940Z,91.25
2022-09-30T07:54:18.096Z,90.92
2022-09-30T07:59:37.988Z,90.79
2022-09-30T08:02:07.813Z,90.29
2022-09-30T08:04:39.256Z,89.31
2022-09-30T08:07:11.318Z,89.96
2022-09-30T08:09:38.967Z,89.69
2022-09-30T08:12:06.957Z,89.54
2022-09-30T08:14:36.047Z,89.19
2022-09-30T08:17:03.748Z,88.57
2022-09-30T08:19:32.393Z,88.54
2022-09-30T08:22:00.346Z,87.65
2022-09-30T08:24:28.338Z,88.05
2022-09-30T08:26:56.837Z,87.47
2022-09-30T08:32:12.481Z,87.16
2022-09-30T08:34:40.111Z,86.19
2022-09-30T08:37:09.462Z,85.95
2022-09-30T08:39:38.968Z,86.03
2022-09-30T08:42:35.603Z,85.98
2022-09-30T08:45:18.257Z,85.62
2022-09-30T08:48:09.912Z,85.49
2022-09-30T08:50:49.040Z,84.87
2022-09-30T08:53:41.103Z,84.79
2022-09-30T08:56:12.847Z,83.71
2022-09-30T08:58:45.439Z,84.28
2022-09-30T09:01:22.372Z,84.00
2022-09-30T09:03:50.100Z,83.27
2022-09-30T09:06:45.776Z,83.33
2022-09-30T09:09:23.205Z,81.54
2022-09-30T09:12:04.361Z,82.60
2022-09-30T09:14:54.162Z,82.44
2022-09-30T09:17:24.626Z,82.31
2022-09-30T09:20:26.449Z,81.05
2022-09-30T09:22:54.198Z,78.43
2022-09-30T09:25:29.266Z,80.12
2022-09-30T09:28:03.313Z,79.42
2022-09-30T09:30:37.369Z,79.24
2022-09-30T09:33:20.952Z,79.31
2022-09-30T09:36:27.229Z,78.88
2022-09-30T09:39:09.011Z,78.98
2022-09-30T09:41:53.663Z,78.50
2022-09-30T09:44:41.878Z,79.17
2022-09-30T09:47:18.299Z,77.84
2022-09-30T09:49:48.022Z,78.43
2022-09-30T09:52:15.662Z,79.04
2022-09-30T09:54:47.081Z,79.07
2022-09-30T09:57:18.413Z,78.78
2022-09-30T10:00:23.837Z,78.47
2022-09-30T10:03:10.183Z,77.26
2022-09-30T10:05:40.791Z,78.07
2022-09-30T10:08:20.448Z,77.95
2022-09-30T10:10:51.234Z,77.87
2022-09-30T10:13:24.662Z,77.86
2022-09-30T10:15:55.798Z,78.52
2022-09-30T10:18:37.621Z,78.38
2022-09-30T10:21:24.094Z,78.27
2022-09-30T10:23:51.764Z,77.45
2022-09-30T10:26:22.835Z,78.42
2022-09-30T10:28:56.183Z,78.06
2022-09-30T10:31:32.759Z,77.90
2022-09-30T10:34:26.607Z,78.19
2022-09-30T10:36:55.667Z,76.37
2022-09-30T10:39:32.195Z,76.61
2022-09-30T10:42:17.214Z,76.51
2022-09-30T10:44:47.028Z,75.66
2022-09-30T10:47:23.354Z,76.17
2022-09-30T10:50:06.380Z,74.56
2022-09-30T10:52:37.623Z,75.18
2022-09-30T10:55:15.693Z,75.82
2022-09-30T10:57:45.649Z,75.82
2022-09-30T11:00:17.095Z,75.99
2022-09-30T11:03:11.996Z,76.05
2022-09-30T11:05:43.522Z,75.08
2022-09-30T11:08:30.187Z,74.84
2022-09-30T11:11:02.783Z,74.00
2022-09-30T11:13:58.482Z,74.97
2022-09-30T11:16:44.721Z,74.61
2022-09-30T11:19:40.262Z,75.19
2022-09-30T11:22:44.705Z,74.70
2022-09-30T11:25:49.706Z,73.98
2022-09-30T11:28:29.324Z,74.77
2022-09-30T11:31:17.149Z,74.60
2022-09-30T11:34:24.164Z,74.47
2022-09-30T11:37:28.758Z,74.68
2022-09-30T11:40:44.129Z,73.67
2022-09-30T11:43:23.709Z,73.71
2022-09-30T11:46:27.177Z,73.94
2022-09-30T11:49:28.188Z,74.73
2022-09-30T11:52:29.493Z,74.09
2022-09-30T11:55:10.619Z,73.76
2022-09-30T11:58:12.075Z,73.32
2022-09-30T12:00:56.863Z,73.39
2022-09-30T12:03:31.513Z,73.50
2022-09-30T12:06:15.524Z,73.91
2022-09-30T12:08:51.646Z,73.40
2022-09-30T12:11:26.594Z,73.66
2022-09-30T12:13:58.697Z,73.09
2022-09-30T12:16:30.893Z,73.01
2022-09-30T12:19:47.771Z,72.75
2022-09-30T12:22:42.199Z,72.28
2022-09-30T12:25:19.806Z,73.24
2022-09-30T12:28:25.034Z,72.76
2022-09-30T12:31:01.227Z,73.32
2022-09-30T12:33:53.778Z,73.40
2022-09-30T12:36:32.812Z,73.22
2022-09-30T12:39:39.628Z,73.31
2022-09-30T12:42:36.724Z,73.21
2022-09-30T12:45:46.915Z,72.89
2022-09-30T12:48:19.589Z,72.99
2022-09-30T12:50:51.528Z,73.73
2022-09-30T12:53:25.253Z,73.83
2022-09-30T12:55:53.543Z,73.06
2022-09-30T12:58:31.884Z,73.33
2022-09-30T13:01:27.810Z,73.14
2022-09-30T13:03:58.335Z,73.60
2022-09-30T13:06:28.092Z,73.69
2022-09-30T13:08:59.084Z,74.11
2022-09-30T13:11:37.453Z,74.52
2022-09-30T13:14:14.810Z,73.81
2022-09-30T13:17:11.338Z,74.83
2022-09-30T13:19:42.115Z,73.62
2022-09-30T13:22:21.829Z,74.05
2022-09-30T13:25:01.770Z,74.73
2022-09-30T13:28:13.991Z,74.31
2022-09-30T13:30:42.161Z,74.13
2022-09-30T13:33:31.976Z,74.12
2022-09-30T13:36:07.693Z,73.54
2022-09-30T13:38:41.482Z,73.78
2022-09-30T13:41:17.994Z,73.69
2022-09-30T13:44:09.151Z,73.89
2022-09-30T13:46:51.047Z,73.29
2022-09-30T13:49:50.357Z,73.31
2022-09-30T13:52:26.254Z,72.62
2022-09-30T13:54:56.359Z,72.87
2022-09-30T13:57:40.432Z,73.10
2022-09-30T14:00:19.031Z,73.01
2022-09-30T14:03:22.455Z,73.47
2022-09-30T14:06:08.463Z,73.06
2022-09-30T14:08:47.602Z,73.51
2022-09-30T14:11:53.935Z,73.55
2022-09-30T14:14:44.944Z,73.71
2022-09-30T14:17:33.487Z,72.67
2022-09-30T14:20:16.467Z,73.08
2022-09-30T14:22:44.196Z,73.26
2022-09-30T14:25:18.090Z,73.34
2022-09-30T14:28:05.430Z,73.10
2022-09-30T14:30:47.314Z,73.42
2022-09-30T14:33:29.434Z,72.96
2022-09-30T14:35:57.166Z,72.69
2022-09-30T14:38:29.192Z,73.31
2022-09-30T14:40:59.988Z,73.05
2022-09-30T14:43:41.783Z,72.65
2022-09-30T14:46:39.867Z,72.45
2022-09-30T14:49:13.508Z,71.27
2022-09-30T14:51:44.626Z,71.93
2022-09-30T14:54:21.778Z,72.02
2022-09-30T14:56:50.785Z,72.55
2022-09-30T14:59:28.172Z,72.38
2022-09-30T15:02:04.476Z,71.65
2022-09-30T15:04:36.061Z,72.11
2022-09-30T15:07:07.975Z,72.14
2022-09-30T15:09:38.562Z,72.10
2022-09-30T15:12:15.026Z,72.15
2022-09-30T15:15:00.643Z,72.40
2022-09-30T15:17:37.966Z,71.03
2022-09-30T15:20:31.431Z,71.75
2022-09-30T15:23:05.399Z,70.94
2022-09-30T15:25:33.328Z,71.12
2022-09-30T15:28:01.099Z,71.55
2022-09-30T15:30:30.385Z,71.94
2022-09-30T15:33:00.945Z,71.61
2022-09-30T15:35:29.502Z,71.69
2022-09-30T15:38:09.669Z,71.57
2022-09-30T15:40:54.323Z,71.55
2022-09-30T15:43:35.542Z,71.98
2022-09-30T15:46:36.394Z,71.65
2022-09-30T15:49:30.149Z,72.02
2022-09-30T15:52:37.547Z,71.80
2022-09-30T15:55:42.839Z,71.50
2022-09-30T15:58:40.617Z,71.49
2022-09-30T16:01:15.251Z,71.82
2022-09-30T16:04:06.598Z,71.62
2022-09-30T16:06:59.512Z,71.47
2022-09-30T16:09:33.809Z,71.84
2022-09-30T16:12:23.374Z,72.03
2022-09-30T16:14:53.749Z,71.71
2022-09-30T16:17:31.045Z,71.23
2022-09-30T16:20:01.785Z,71.06
2022-09-30T16:22:50.492Z,71.20
2022-09-30T16:25:20.621Z,70.45
2022-09-30T16:27:49.224Z,71.07
2022-09-30T16:30:19.853Z,71.26
2022-09-30T16:32:51.806Z,71.34
2022-09-30T16:35:24.746Z,71.61
2022-09-30T16:38:02.526Z,71.63
2022-09-30T16:40:32.206Z,71.55
2022-09-30T16:43:03.190Z,71.71
2022-09-30T16:45:33.925Z,71.46
2022-09-30T16:48:03.135Z,71.82
2022-09-30T16:50:44.910Z,72.01
2022-09-30T16:53:12.630Z,71.97
2022-09-30T16:55:41.203Z,72.79
2022-09-30T16:58:13.329Z,72.67
2022-09-30T17:00:45.695Z,73.90
2022-09-30T17:03:18.827Z,74.01
2022-09-30T17:05:52.850Z,73.95
2022-09-30T17:08:22.378Z,73.71
2022-09-30T17:10:51.123Z,73.48
2022-09-30T17:13:19.687Z,73.44
2022-09-30T17:15:52.812Z,73.58
2022-09-30T17:18:21.143Z,73.48
2022-09-30T17:20:56.978Z,73.85
2022-09-30T17:23:26.456Z,74.24
2022-09-30T17:25:55.834Z,74.56
2022-09-30T17:28:24.239Z,75.03
2022-09-30T17:30:52.050Z,75.34
2022-09-30T17:33:20.874Z,75.47
2022-09-30T17:36:02.072Z,75.90
2022-09-30T17:38:30.333Z,76.06
2022-09-30T17:41:16.843Z,76.42
2022-09-30T17:43:46.506Z,76.71
2022-09-30T17:46:19.942Z,76.87
2022-09-30T17:48:47.950Z,77.42
2022-09-30T17:51:19.578Z,77.75
2022-09-30T17:53:47.775Z,78.06
2022-09-30T17:56:20.416Z,78.37
2022-09-30T17:58:50.224Z,78.71
2022-09-30T18:01:21.383Z,78.85
2022-09-30T18:03:50.343Z,79.30
2022-09-30T18:06:18.019Z,79.36
2022-09-30T18:08:49.635Z,79.77
2022-09-30T18:11:28.112Z,80.32
2022-09-30T18:14:00.554Z,80.92
2022-09-30T18:16:32.552Z,81.16
2022-09-30T18:19:02.442Z,81.10
2022-09-30T18:21:30.879Z,81.50
2022-09-30T18:23:59.186Z,81.95
2022-09-30T18:26:33.320Z,82.02
2022-09-30T18:29:02.735Z,82.04
2022-09-30T18:31:35.784Z,82.30
2022-09-30T18:34:05.867Z,82.45
2022-09-30T18:36:33.745Z,82.79
2022-09-30T18:39:03.189Z,82.73
2022-09-30T18:41:35.547Z,82.93
2022-09-30T18:44:03.887Z,82.98
2022-09-30T18:46:32.455Z,83.50
2022-09-30T18:49:00.103Z,83.65
2022-09-30T18:51:27.788Z,83.79
2022-09-30T18:53:58.720Z,84.13
2022-09-30T18:56:32.868Z,84.34
2022-09-30T18:59:02.443Z,84.25
2022-09-30T19:01:30.664Z,84.48
2022-09-30T19:03:58.586Z,84.30
2022-09-30T19:06:26.711Z,84.63
2022-09-30T19:08:54.427Z,84.65
2022-09-30T19:11:24.025Z,84.37
2022-09-30T19:13:53.847Z,84.48
2022-09-30T19:16:21.489Z,84.71
2022-09-30T19:18:49.161Z,84.79
2022-09-30T19:21:21.191Z,84.99
2022-09-30T19:23:49.744Z,84.93
2022-09-30T19:26:17.412Z,84.81
2022-09-30T19:28:45.281Z,84.89
2022-09-30T19:31:17.981Z,85.44
2022-09-30T19:33:55.966Z,85.83
2022-09-30T19:36:25.858Z,85.72
2022-09-30T19:39:04.291Z,85.91
2022-09-30T19:41:36.692Z,86.06
2022-09-30T19:44:04.659Z,86.27
2022-09-30T19:46:32.497Z,86.26
2022-09-30T19:49:00.253Z,86.84
2022-09-30T19:51:30.239Z,87.18
2022-09-30T19:54:06.338Z,87.18
2022-09-30T19:56:36.349Z,87.11
2022-09-30T19:59:04.536Z,87.12
2022-09-30T20:01:35.626Z,87.28
2022-09-30T20:04:06.010Z,87.34
2022-09-30T20:06:35.312Z,87.94
2022-09-30T20:09:05.516Z,87.70
2022-09-30T20:11:35.274Z,87.70
2022-09-30T20:14:25.400Z,87.72
2022-09-30T20:16:55.391Z,87.71
2022-09-30T20:19:24.157Z,87.97
2022-09-30T20:21:53.462Z,87.98
2022-09-30T20:24:22.141Z,87.70
2022-09-30T20:26:51.245Z,87.87
2022-09-30T20:29:21.614Z,87.86
2022-09-30T20:31:50.302Z,88.00
2022-09-30T20:34:18.814Z,88.18
2022-09-30T20:36:46.897Z,88.32
2022-09-30T20:39:14.569Z,88.16
2022-09-30T20:41:42.890Z,88.13
2022-09-30T20:44:15.416Z,88.36
2022-09-30T20:46:43.993Z,88.66
2022-09-30T20:49:11.674Z,88.69
2022-09-30T20:51:39.345Z,88.60
2022-09-30T20:54:07.059Z,88.84
2022-09-30T20:56:50.118Z,88.84
2022-09-30T20:59:22.625Z,88.77
2022-09-30T21:01:50.284Z,88.62
2022-09-30T21:04:17.912Z,88.55
2022-09-30T21:06:45.537Z,88.97
2022-09-30T21:09:13.924Z,88.87
2022-09-30T21:11:43.178Z,88.54
2022-09-30T21:14:10.841Z,88.92
2022-09-30T21:16:38.561Z,88.89
2022-09-30T21:19:06.290Z,88.76
2022-09-30T21:21:34.201Z,88.48
2022-09-30T21:24:02.628Z,88.61
2022-09-30T21:26:31.071Z,88.78
2022-09-30T21:28:58.662Z,88.92
2022-09-30T21:31:28.283Z,88.80
2022-09-30T21:33:59.334Z,88.62
2022-09-30T21:36:29.058Z,88.57
2022-09-30T21:39:02.422Z,88.81
2022-09-30T21:41:31.306Z,88.83
2022-09-30T21:43:59.875Z,88.84
2022-09-30T21:46:30.500Z,88.75
2022-09-30T21:49:14.789Z,88.97
2022-09-30T21:51:42.905Z,89.53
2022-09-30T21:54:12.845Z,89.56
2022-09-30T21:56:44.701Z,89.79
2022-09-30T21:59:13.891Z,90.14
2022-09-30T22:01:41.941Z,90.79
2022-09-30T22:04:09.998Z,90.89
2022-09-30T22:06:37.666Z,90.67
2022-09-30T22:09:06.278Z,90.55
2022-09-30T22:11:34.126Z,90.68
2022-09-30T22:14:02.473Z,90.57
2022-09-30T22:16:35.779Z,90.57
2022-09-30T22:19:06.038Z,90.75
2022-09-30T22:24:06.579Z,90.24
2022-09-30T22:26:34.911Z,89.83
2022-09-30T22:29:06.600Z,89.84
2022-09-30T22:31:35.635Z,90.30
2022-09-30T22:34:24.746Z,90.07
2022-09-30T22:37:11.349Z,90.07
2022-09-30T22:39:38.992Z,90.29
2022-09-30T22:42:07.164Z,90.36
2022-09-30T22:44:36.821Z,90.06
2022-09-30T22:47:05.441Z,90.00
2022-09-30T22:49:36.107Z,90.41
2022-09-30T22:52:04.675Z,90.04
2022-09-30T22:54:32.570Z,89.89
2022-09-30T22:57:00.409Z,89.68
2022-09-30T22:59:29.536Z,89.77
2022-09-30T23:01:58.230Z,90.00
2022-09-30T23:04:27.815Z,89.60
2022-09-30T23:06:58.957Z,89.41
2022-09-30T23:09:26.667Z,89.40
2022-09-30T23:11:56.097Z,89.57
2022-09-30T23:14:24.067Z,89.44
2022-09-30T23:16:52.385Z,89.80
2022-09-30T23:19:20.620Z,89.69
2022-09-30T23:21:48.763Z,89.78
2022-09-30T23:24:16.724Z,89.60
2022-09-30T23:26:44.659Z,89.51
2022-09-30T23:29:15.122Z,89.47
2022-09-30T23:31:43.178Z,89.68
2022-09-30T23:34:11.014Z,89.78
2022-09-30T23:36:39.105Z,90.07
2022-09-30T23:39:13.461Z,89.72
2022-09-30T23:41:41.470Z,90.21
2022-09-30T23:44:11.079Z,89.90
2022-09-30T23:46:38.698Z,89.63
2022-09-30T23:49:09.404Z,89.30
2022-09-30T23:51:37.138Z,90.19
2022-09-30T23:54:04.838Z,89.67
2022-09-30T23:56:33.225Z,89.91
2022-09-30T23:59:00.974Z,89.76
